createdAt,value
2019-03-16T00:00:38.878Z,140.37
2019-03-16T00:03:10.250Z,121.10
2019-03-16T00:05:41.445Z,129.70
2019-03-16T00:08:12.647Z,122.02
2019-03-16T00:10:44.014Z,113.10
2019-03-16T00:13:16.241Z,123.47
2019-03-16T00:15:47.757Z,117.87
2019-03-16T00:18:19.054Z,121.90
2019-03-16T00:20:50.352Z,104.80
2019-03-16T00:23:21.745Z,139.60
2019-03-16T00:25:53.003Z,121.90
2019-03-16T00:28:24.367Z,113.00
2019-03-16T00:30:55.615Z,86.78
2019-03-16T00:33:26.925Z,121.28
2019-03-16T00:35:58.243Z,136.12
2019-03-16T00:38:29.537Z,133.72
2019-03-16T00:41:00.783Z,131.27
2019-03-16T00:43:32.115Z,133.20
2019-03-16T00:46:03.510Z,119.85
2019-03-16T00:48:34.834Z,110.05
2019-03-16T00:51:06.255Z,145.15
2019-03-16T00:53:37.522Z,148.53
2019-03-16T00:56:08.910Z,134.80
2019-03-16T00:58:40.357Z,147.75
2019-03-16T01:01:11.542Z,152.32
2019-03-16T01:03:42.731Z,139.75
2019-03-16T01:06:14.128Z,174.05
2019-03-16T01:08:45.400Z,164.10
2019-03-16T01:11:16.718Z,169.05
2019-03-16T01:13:47.988Z,206.55
2019-03-16T01:16:19.257Z,199.05
2019-03-16T01:18:50.587Z,131.07
2019-03-16T01:21:21.932Z,167.82
2019-03-16T01:23:53.275Z,191.22
2019-03-16T01:26:24.630Z,168.32
2019-03-16T01:28:55.956Z,192.20
2019-03-16T01:31:27.297Z,260.63
2019-03-16T01:33:58.943Z,238.25
2019-03-16T01:36:30.349Z,253.50
2019-03-16T01:39:01.652Z,259.48
2019-03-16T01:41:34.647Z,305.02
2019-03-16T01:44:05.971Z,195.20
2019-03-16T01:46:37.308Z,154.20
2019-03-16T01:49:08.700Z,152.40
2019-03-16T01:51:40.060Z,138.57
2019-03-16T01:54:11.458Z,156.35
2019-03-16T01:56:42.781Z,143.60
2019-03-16T01:59:14.100Z,161.35
2019-03-16T02:01:45.470Z,142.28
2019-03-16T02:04:16.793Z,139.85
2019-03-16T02:06:48.112Z,131.55
2019-03-16T02:09:19.471Z,137.55
2019-03-16T02:11:50.849Z,123.58
2019-03-16T02:14:22.163Z,135.28
2019-03-16T02:16:53.537Z,131.10
2019-03-16T02:19:24.823Z,133.75
2019-03-16T02:21:55.990Z,121.33
2019-03-16T02:24:27.303Z,142.50
2019-03-16T02:26:58.603Z,85.95
2019-03-16T02:29:29.987Z,142.55
2019-03-16T02:32:01.387Z,138.95
2019-03-16T02:34:32.740Z,110.20
2019-03-16T02:37:04.052Z,150.25
2019-03-16T02:39:35.415Z,139.80
2019-03-16T02:42:06.730Z,151.70
2019-03-16T02:44:38.030Z,135.15
2019-03-16T02:47:09.266Z,137.70
2019-03-16T02:49:40.610Z,100.42
2019-03-16T02:52:12.031Z,119.80
2019-03-16T02:54:43.445Z,108.65
2019-03-16T02:57:14.677Z,139.10
2019-03-16T02:59:45.927Z,124.38
2019-03-16T03:02:17.240Z,123.87
2019-03-16T03:04:48.608Z,123.30
2019-03-16T03:07:19.881Z,123.00
2019-03-16T03:09:51.207Z,130.05
2019-03-16T03:12:22.610Z,117.35
2019-03-16T03:14:54.078Z,127.85
2019-03-16T03:17:25.307Z,125.67
2019-03-16T03:19:56.622Z,111.75
2019-03-16T03:22:27.985Z,126.87
2019-03-16T03:24:59.339Z,113.32
2019-03-16T03:27:30.675Z,133.30
2019-03-16T03:30:02.169Z,123.62
2019-03-16T03:32:33.529Z,120.67
2019-03-16T03:35:06.150Z,121.82
2019-03-16T03:37:37.503Z,122.92
2019-03-16T03:40:10.294Z,119.08
2019-03-16T03:42:41.619Z,120.42
2019-03-16T03:45:14.198Z,121.07
2019-03-16T03:50:16.188Z,125.42
2019-03-16T03:52:47.505Z,129.85
2019-03-16T03:55:18.831Z,121.25
2019-03-16T03:57:50.159Z,84.90
2019-03-16T04:00:21.575Z,116.82
2019-03-16T04:02:52.732Z,90.60
2019-03-16T04:05:24.143Z,110.28
2019-03-16T04:07:56.519Z,119.42
2019-03-16T04:10:27.812Z,124.22
2019-03-16T04:12:59.123Z,119.45
2019-03-16T04:15:30.377Z,98.15
2019-03-16T04:18:02.178Z,105.75
2019-03-16T04:20:33.434Z,101.33
2019-03-16T04:23:04.760Z,110.03
2019-03-16T04:25:35.901Z,123.45
2019-03-16T04:28:07.195Z,121.00
2019-03-16T04:30:38.429Z,123.22
2019-03-16T04:33:10.125Z,105.95
2019-03-16T04:35:41.327Z,88.25
2019-03-16T04:38:12.623Z,107.43
2019-03-16T04:40:44.803Z,97.27
2019-03-16T04:43:16.064Z,112.85
2019-03-16T04:45:47.407Z,98.80
2019-03-16T04:48:18.721Z,112.20
2019-03-16T04:50:50.230Z,101.35
2019-03-16T04:53:22.095Z,119.33
2019-03-16T04:55:53.423Z,125.42
2019-03-16T04:58:24.761Z,143.30
2019-03-16T05:00:55.994Z,112.70
2019-03-16T05:03:27.333Z,138.30
2019-03-16T05:05:58.601Z,122.28
2019-03-16T05:08:29.894Z,119.22
2019-03-16T05:11:01.201Z,141.80
2019-03-16T05:13:32.572Z,134.55
2019-03-16T05:16:03.875Z,121.82
2019-03-16T05:18:35.128Z,100.92
2019-03-16T05:21:06.450Z,106.97
2019-03-16T05:23:37.883Z,99.28
2019-03-16T05:26:09.296Z,80.42
2019-03-16T05:28:40.684Z,103.17
2019-03-16T05:31:11.928Z,98.85
2019-03-16T05:33:43.084Z,92.40
2019-03-16T05:36:14.450Z,103.37
2019-03-16T05:38:45.810Z,98.25
2019-03-16T05:41:17.080Z,126.50
2019-03-16T05:43:48.455Z,114.00
2019-03-16T05:46:19.852Z,108.05
2019-03-16T05:48:51.142Z,111.50
2019-03-16T05:51:22.473Z,87.05
2019-03-16T05:53:53.840Z,108.70
2019-03-16T05:56:25.178Z,94.70
2019-03-16T05:58:56.551Z,92.82
2019-03-16T06:01:27.792Z,81.47
2019-03-16T06:03:59.229Z,63.38
2019-03-16T06:06:30.561Z,84.60
2019-03-16T06:09:01.952Z,86.55
2019-03-16T06:11:33.431Z,75.65
2019-03-16T06:14:04.867Z,79.92
2019-03-16T06:16:36.163Z,76.02
2019-03-16T06:19:07.586Z,95.00
2019-03-16T06:21:38.939Z,84.35
2019-03-16T06:24:10.293Z,79.25
2019-03-16T06:26:41.705Z,75.75
2019-03-16T06:29:13.144Z,77.20
2019-03-16T06:31:44.567Z,87.90
2019-03-16T06:34:15.964Z,85.70
2019-03-16T06:36:47.358Z,72.22
2019-03-16T06:39:18.747Z,75.45
2019-03-16T06:41:50.012Z,72.97
2019-03-16T06:44:21.274Z,72.85
2019-03-16T06:46:53.176Z,70.22
2019-03-16T06:49:24.486Z,75.40
2019-03-16T06:51:55.841Z,76.55
2019-03-16T06:54:27.269Z,68.00
2019-03-16T06:56:58.647Z,65.75
2019-03-16T06:59:29.913Z,71.82
2019-03-16T07:02:01.253Z,64.07
2019-03-16T07:04:32.669Z,64.90
2019-03-16T07:07:04.096Z,65.10
2019-03-16T07:09:35.417Z,70.80
2019-03-16T07:12:06.710Z,65.72
2019-03-16T07:14:38.083Z,78.47
2019-03-16T07:17:09.311Z,81.32
2019-03-16T07:19:40.696Z,63.68
2019-03-16T07:22:12.063Z,65.22
2019-03-16T07:24:43.460Z,61.05
2019-03-16T07:27:25.630Z,55.08
2019-03-16T07:29:47.844Z,62.15
2019-03-16T07:32:19.182Z,55.80
2019-03-16T07:34:50.489Z,46.05
2019-03-16T07:37:21.798Z,55.55
2019-03-16T07:39:53.082Z,48.48
2019-03-16T07:42:24.429Z,37.40
2019-03-16T07:45:07.467Z,36.25
2019-03-16T07:47:28.867Z,29.80
2019-03-16T07:50:00.389Z,29.87
2019-03-16T07:52:31.796Z,34.40
2019-03-16T07:55:05.016Z,34.45
2019-03-16T07:57:40.422Z,31.80
2019-03-16T08:00:11.275Z,25.72
2019-03-16T08:02:42.479Z,29.77
2019-03-16T08:05:18.511Z,36.20
2019-03-16T08:07:46.842Z,29.42
2019-03-16T08:10:18.159Z,31.77
2019-03-16T08:12:49.496Z,33.78
2019-03-16T08:15:20.870Z,34.43
2019-03-16T08:17:52.160Z,32.30
2019-03-16T08:20:23.535Z,32.83
2019-03-16T08:22:54.852Z,24.92
2019-03-16T08:25:26.281Z,28.70
2019-03-16T08:30:28.473Z,29.48
2019-03-16T08:32:59.810Z,25.57
2019-03-16T08:35:32.252Z,22.15
2019-03-16T08:38:03.454Z,40.17
2019-03-16T08:40:34.848Z,28.77
2019-03-16T08:43:07.302Z,31.65
2019-03-16T08:45:38.702Z,30.90
2019-03-16T08:48:22.215Z,30.27
2019-03-16T08:50:43.248Z,29.23
2019-03-16T08:53:15.238Z,25.25
2019-03-16T08:55:46.762Z,25.40
2019-03-16T08:58:18.081Z,34.00
2019-03-16T09:00:49.399Z,34.03
2019-03-16T09:03:20.782Z,29.60
2019-03-16T09:05:52.246Z,22.73
2019-03-16T09:08:23.625Z,25.25
2019-03-16T09:10:55.165Z,26.70
2019-03-16T09:13:26.557Z,25.57
2019-03-16T09:15:57.963Z,39.50
2019-03-16T09:18:29.362Z,21.93
2019-03-16T09:21:00.715Z,23.20
2019-03-16T09:23:32.104Z,22.15
2019-03-16T09:26:03.504Z,23.10
2019-03-16T09:28:34.809Z,21.27
2019-03-16T09:31:06.167Z,18.85
2019-03-16T09:33:37.550Z,18.57
2019-03-16T09:36:08.872Z,22.27
2019-03-16T09:38:40.187Z,27.98
2019-03-16T09:41:11.590Z,24.30
2019-03-16T09:43:42.858Z,30.80
2019-03-16T09:46:14.226Z,22.45
2019-03-16T09:48:45.656Z,18.15
2019-03-16T09:51:17.091Z,20.30
2019-03-16T09:53:48.446Z,20.62
2019-03-16T09:56:19.789Z,20.30
2019-03-16T09:58:50.897Z,19.87
2019-03-16T10:01:22.215Z,21.40
2019-03-16T10:03:53.682Z,18.20
2019-03-16T10:06:25.017Z,16.75
2019-03-16T10:08:56.320Z,22.67
2019-03-16T10:13:58.726Z,24.65
2019-03-16T10:16:30.214Z,25.85
2019-03-16T10:19:01.524Z,21.37
2019-03-16T10:21:32.788Z,26.97
2019-03-16T10:24:04.061Z,20.75
2019-03-16T10:26:37.560Z,23.22
2019-03-16T10:29:08.463Z,22.25
2019-03-16T10:31:39.722Z,23.90
2019-03-16T10:34:10.997Z,28.40
2019-03-16T10:36:42.356Z,34.98
2019-03-16T10:39:13.696Z,23.95
2019-03-16T10:41:45.131Z,19.42
2019-03-16T10:44:16.455Z,19.10
2019-03-16T10:46:47.779Z,19.25
2019-03-16T10:49:19.052Z,19.32
2019-03-16T10:51:50.461Z,22.55
2019-03-16T10:54:21.699Z,22.13
2019-03-16T10:56:53.123Z,19.73
2019-03-16T10:59:24.537Z,15.83
2019-03-16T11:01:55.970Z,15.40
2019-03-16T11:04:28.266Z,20.88
2019-03-16T11:06:59.650Z,23.80
2019-03-16T11:09:31.049Z,18.82
2019-03-16T11:12:02.587Z,24.77
2019-03-16T11:14:33.989Z,17.37
2019-03-16T11:17:05.343Z,26.42
2019-03-16T11:19:36.742Z,25.60
2019-03-16T11:22:08.130Z,22.73
2019-03-16T11:24:39.476Z,26.50
2019-03-16T11:27:10.724Z,26.57
2019-03-16T11:29:42.089Z,25.75
2019-03-16T11:32:13.462Z,25.27
2019-03-16T11:34:45.212Z,21.23
2019-03-16T11:37:16.789Z,26.48
2019-03-16T11:39:48.164Z,22.85
2019-03-16T11:42:19.474Z,29.95
2019-03-16T11:44:50.732Z,32.67
2019-03-16T11:47:21.989Z,24.07
2019-03-16T11:49:53.300Z,19.87
2019-03-16T11:52:24.687Z,30.52
2019-03-16T11:54:56.067Z,27.27
2019-03-16T11:57:27.483Z,46.37
2019-03-16T11:59:58.712Z,45.38
2019-03-16T12:02:30.076Z,29.77
2019-03-16T12:05:02.258Z,27.50
2019-03-16T12:07:33.703Z,33.85
2019-03-16T12:10:07.582Z,33.25
2019-03-16T12:12:38.859Z,32.10
2019-03-16T12:15:11.611Z,25.27
2019-03-16T12:17:43.016Z,23.42
2019-03-16T12:20:18.707Z,26.17
2019-03-16T12:22:50.263Z,20.48
2019-03-16T12:25:21.614Z,26.55
2019-03-16T12:27:52.963Z,20.00
2019-03-16T12:30:24.326Z,30.27
2019-03-16T12:32:55.610Z,31.42
2019-03-16T12:35:26.980Z,40.17
2019-03-16T12:37:58.301Z,34.30
2019-03-16T12:40:29.711Z,20.37
2019-03-16T12:43:01.059Z,21.60
2019-03-16T12:45:32.367Z,17.73
2019-03-16T12:50:34.579Z,26.42
2019-03-16T12:53:05.889Z,29.55
2019-03-16T12:55:37.188Z,22.07
2019-03-16T12:58:08.454Z,34.45
2019-03-16T13:00:39.837Z,16.87
2019-03-16T13:03:11.229Z,17.10
2019-03-16T13:05:42.565Z,23.80
2019-03-16T13:08:13.885Z,16.95
2019-03-16T13:10:45.191Z,17.07
2019-03-16T13:13:16.582Z,26.80
2019-03-16T13:15:47.991Z,23.07
2019-03-16T13:18:19.347Z,25.82
2019-03-16T13:20:50.726Z,19.40
2019-03-16T13:23:21.914Z,19.35
2019-03-16T13:25:53.257Z,16.48
2019-03-16T13:28:24.553Z,19.75
2019-03-16T13:30:56.313Z,25.20
2019-03-16T13:33:27.665Z,23.10
2019-03-16T13:35:59.032Z,23.40
2019-03-16T13:38:30.414Z,21.60
2019-03-16T13:41:01.719Z,20.80
2019-03-16T13:43:32.961Z,15.85
2019-03-16T13:46:04.321Z,17.00
2019-03-16T13:48:35.739Z,27.85
2019-03-16T13:51:07.070Z,34.45
2019-03-16T13:53:38.365Z,21.10
2019-03-16T13:56:09.966Z,24.25
2019-03-16T13:58:41.216Z,22.25
2019-03-16T14:01:12.487Z,17.25
2019-03-16T14:03:43.870Z,16.95
2019-03-16T14:06:15.369Z,20.97
2019-03-16T14:08:46.706Z,25.35
2019-03-16T14:11:18.076Z,18.35
2019-03-16T14:13:49.437Z,26.15
2019-03-16T14:16:21.096Z,27.73
2019-03-16T14:18:52.283Z,23.73
2019-03-16T14:21:23.620Z,26.02
2019-03-16T14:23:56.087Z,32.70
2019-03-16T14:26:27.388Z,33.35
2019-03-16T14:28:58.735Z,24.25
2019-03-16T14:34:01.675Z,21.80
2019-03-16T14:36:32.926Z,29.30
2019-03-16T14:39:06.424Z,24.90
2019-03-16T14:41:37.675Z,37.42
2019-03-16T14:44:09.156Z,51.40
2019-03-16T14:46:40.506Z,25.62
2019-03-16T14:49:11.845Z,26.12
2019-03-16T14:51:43.137Z,28.77
2019-03-16T14:54:14.459Z,37.53
2019-03-16T14:56:45.936Z,51.08
2019-03-16T14:59:17.190Z,47.88
2019-03-16T15:01:48.572Z,43.08
2019-03-16T15:04:19.866Z,45.08
2019-03-16T15:06:51.236Z,62.80
2019-03-16T15:09:22.612Z,69.45
2019-03-16T15:11:53.979Z,40.58
2019-03-16T15:14:25.286Z,43.75
2019-03-16T15:16:56.550Z,58.83
2019-03-16T15:19:27.874Z,52.50
2019-03-16T15:21:59.285Z,44.95
2019-03-16T15:24:30.549Z,39.20
2019-03-16T15:27:01.901Z,46.63
2019-03-16T15:29:33.208Z,41.23
2019-03-16T15:32:04.448Z,48.65
2019-03-16T15:34:35.774Z,50.12
2019-03-16T15:37:07.214Z,45.98
2019-03-16T15:39:38.539Z,43.02
2019-03-16T15:42:10.759Z,44.88
2019-03-16T15:44:42.804Z,33.88
2019-03-16T15:47:14.100Z,31.17
2019-03-16T15:49:45.377Z,41.35
2019-03-16T15:52:16.817Z,34.27
2019-03-16T15:54:48.077Z,33.53
2019-03-16T15:57:19.397Z,35.63
2019-03-16T15:59:50.712Z,42.13
2019-03-16T16:02:21.960Z,44.03
2019-03-16T16:04:53.208Z,64.97
2019-03-16T16:07:24.552Z,40.23
2019-03-16T16:09:55.840Z,47.08
2019-03-16T16:12:27.033Z,42.60
2019-03-16T16:14:58.386Z,48.58
2019-03-16T16:17:29.931Z,33.13
2019-03-16T16:20:01.282Z,53.55
2019-03-16T16:22:32.673Z,74.35
2019-03-16T16:25:04.632Z,55.25
2019-03-16T16:30:15.416Z,54.58
2019-03-16T16:32:46.851Z,51.45
2019-03-16T16:35:20.463Z,54.73
2019-03-16T16:37:51.815Z,50.98
2019-03-16T16:40:23.187Z,59.30
2019-03-16T16:42:54.583Z,48.85
2019-03-16T16:45:25.864Z,51.70
2019-03-16T16:47:57.121Z,60.65
2019-03-16T16:50:28.327Z,56.55
2019-03-16T16:52:59.690Z,52.53
2019-03-16T16:55:31.079Z,74.95
2019-03-16T16:58:02.467Z,60.25
2019-03-16T17:00:34.021Z,88.72
2019-03-16T17:03:05.861Z,59.23
2019-03-16T17:05:37.312Z,52.67
2019-03-16T17:08:08.649Z,78.65
2019-03-16T17:10:40.055Z,179.35
2019-03-16T17:13:11.457Z,99.65
2019-03-16T17:15:42.794Z,143.87
2019-03-16T17:18:14.213Z,88.85
2019-03-16T17:20:45.635Z,31.90
2019-03-16T17:23:16.922Z,54.13
2019-03-16T17:25:49.384Z,62.45
2019-03-16T17:28:20.746Z,36.45
2019-03-16T17:30:52.097Z,66.57
2019-03-16T17:33:23.452Z,54.93
2019-03-16T17:35:54.885Z,44.50
2019-03-16T17:38:26.245Z,49.15
2019-03-16T17:40:57.526Z,58.92
2019-03-16T17:43:29.007Z,66.12
2019-03-16T17:46:00.424Z,36.75
2019-03-16T17:48:31.670Z,51.35
2019-03-16T17:51:03.040Z,112.90
2019-03-16T17:53:34.436Z,37.93
2019-03-16T17:56:05.758Z,25.88
2019-03-16T17:58:37.066Z,77.53
2019-03-16T18:01:08.434Z,38.23
2019-03-16T18:03:39.758Z,40.45
2019-03-16T18:06:11.001Z,38.28
2019-03-16T18:08:42.313Z,35.60
2019-03-16T18:11:13.585Z,38.80
2019-03-16T18:13:45.509Z,65.95
2019-03-16T18:16:16.762Z,94.95
2019-03-16T18:18:48.143Z,34.23
2019-03-16T18:21:19.405Z,40.63
2019-03-16T18:23:50.798Z,51.65
2019-03-16T18:26:22.184Z,49.45
2019-03-16T18:28:53.543Z,41.25
2019-03-16T18:31:24.895Z,42.17
2019-03-16T18:33:56.123Z,73.17
2019-03-16T18:36:27.502Z,93.33
2019-03-16T18:38:58.544Z,50.80
2019-03-16T18:41:29.802Z,39.55
2019-03-16T18:44:01.142Z,44.10
2019-03-16T18:46:32.428Z,92.02
2019-03-16T18:49:03.686Z,57.98
2019-03-16T18:51:35.000Z,40.43
2019-03-16T18:54:06.256Z,35.55
2019-03-16T18:56:37.575Z,95.22
2019-03-16T18:59:09.344Z,44.10
2019-03-16T19:01:41.023Z,52.48
2019-03-16T19:04:12.318Z,66.67
2019-03-16T19:06:43.632Z,76.80
2019-03-16T19:09:14.925Z,102.60
2019-03-16T19:11:46.243Z,55.60
2019-03-16T19:14:17.623Z,52.43
2019-03-16T19:16:48.893Z,38.23
2019-03-16T19:19:20.180Z,37.10
2019-03-16T19:21:51.529Z,55.58
2019-03-16T19:24:23.943Z,46.77
2019-03-16T19:26:55.284Z,44.77
2019-03-16T19:29:26.661Z,40.95
2019-03-16T19:31:58.035Z,56.63
2019-03-16T19:34:29.369Z,54.77
2019-03-16T19:37:00.568Z,56.42
2019-03-16T19:39:31.929Z,54.42
2019-03-16T19:42:03.229Z,53.10
2019-03-16T19:44:34.606Z,60.78
2019-03-16T19:47:05.966Z,54.80
2019-03-16T19:49:37.268Z,71.42
2019-03-16T19:52:08.667Z,60.00
2019-03-16T19:54:39.984Z,57.35
2019-03-16T19:57:16.244Z,67.97
2019-03-16T19:59:44.322Z,105.78
2019-03-16T20:02:15.669Z,69.07
2019-03-16T20:04:47.118Z,59.03
2019-03-16T20:07:19.588Z,33.20
2019-03-16T20:09:51.459Z,63.48
2019-03-16T20:12:22.797Z,45.83
2019-03-16T20:14:54.124Z,34.60
2019-03-16T20:17:25.422Z,49.23
2019-03-16T20:19:56.874Z,50.08
2019-03-16T20:22:28.301Z,56.50
2019-03-16T20:24:59.619Z,44.42
2019-03-16T20:27:31.046Z,50.88
2019-03-16T20:30:02.421Z,48.13
2019-03-16T20:32:35.037Z,46.20
2019-03-16T20:35:08.178Z,47.80
2019-03-16T20:37:39.564Z,78.28
2019-03-16T20:40:15.286Z,40.17
2019-03-16T20:42:46.600Z,50.25
2019-03-16T20:45:18.154Z,43.58
2019-03-16T20:47:49.486Z,38.83
2019-03-16T20:50:21.044Z,35.70
2019-03-16T20:52:52.396Z,30.80
2019-03-16T20:55:23.650Z,23.75
2019-03-16T20:57:55.046Z,28.62
2019-03-16T21:00:26.423Z,24.50
2019-03-16T21:02:57.801Z,18.48
2019-03-16T21:05:29.170Z,25.45
2019-03-16T21:08:00.544Z,20.43
2019-03-16T21:10:31.926Z,18.23
2019-03-16T21:13:03.271Z,19.67
2019-03-16T21:15:34.662Z,18.32
2019-03-16T21:18:06.031Z,20.77
2019-03-16T21:20:37.216Z,16.50
2019-03-16T21:23:08.604Z,22.15
2019-03-16T21:25:39.999Z,22.52
2019-03-16T21:28:11.330Z,22.48
2019-03-16T21:30:42.655Z,19.62
2019-03-16T21:33:15.058Z,21.25
2019-03-16T21:35:46.363Z,22.60
2019-03-16T21:38:17.832Z,25.15
2019-03-16T21:40:49.279Z,27.70
2019-03-16T21:43:20.683Z,23.30
2019-03-16T21:45:51.919Z,33.40
2019-03-16T21:48:23.351Z,29.70
2019-03-16T21:50:54.626Z,45.48
2019-03-16T21:53:26.015Z,46.55
2019-03-16T21:55:57.422Z,51.40
2019-03-16T21:58:28.808Z,40.70
2019-03-16T22:01:00.193Z,56.02
2019-03-16T22:03:41.556Z,96.50
2019-03-16T22:06:04.593Z,72.45
2019-03-16T22:08:35.876Z,47.65
2019-03-16T22:11:07.270Z,43.58
2019-03-16T22:13:39.877Z,37.17
2019-03-16T22:16:11.925Z,43.90
2019-03-16T22:18:43.563Z,40.95
2019-03-16T22:21:14.933Z,44.42
2019-03-16T22:23:46.259Z,35.35
2019-03-16T22:26:17.567Z,40.73
2019-03-16T22:28:48.808Z,39.85
2019-03-16T22:31:20.127Z,42.62
2019-03-16T22:33:54.752Z,39.95
2019-03-16T22:36:25.628Z,41.35
2019-03-16T22:38:56.883Z,43.05
2019-03-16T22:41:28.230Z,36.20
2019-03-16T22:43:59.494Z,35.98
2019-03-16T22:46:30.810Z,36.68
2019-03-16T22:49:02.089Z,30.48
2019-03-16T22:51:33.300Z,37.80
2019-03-16T22:54:04.564Z,40.43
2019-03-16T22:56:35.862Z,41.25
2019-03-16T22:59:07.257Z,38.02
2019-03-16T23:01:38.564Z,42.13
2019-03-16T23:04:09.986Z,34.90
2019-03-16T23:06:41.408Z,43.92
2019-03-16T23:09:12.790Z,40.25
2019-03-16T23:11:44.190Z,43.35
2019-03-16T23:14:15.583Z,39.33
2019-03-16T23:16:48.228Z,44.90
2019-03-16T23:19:19.623Z,40.75
2019-03-16T23:21:50.944Z,37.88
2019-03-16T23:24:22.271Z,26.20
2019-03-16T23:26:53.500Z,32.28
2019-03-16T23:29:24.734Z,32.42
2019-03-16T23:31:56.137Z,32.17
2019-03-16T23:34:27.515Z,32.53
2019-03-16T23:37:00.003Z,43.33
2019-03-16T23:39:31.255Z,33.15
2019-03-16T23:42:02.652Z,28.73
2019-03-16T23:44:34.073Z,38.58
2019-03-16T23:47:05.789Z,43.25
2019-03-16T23:49:38.093Z,40.75
2019-03-16T23:52:09.472Z,42.98
2019-03-16T23:54:40.738Z,61.68
2019-03-16T23:57:12.064Z,74.30
2019-03-16T23:59:43.593Z,75.67
